sensor_id;sensor_type;location;lat;lon;timestamp;pressure;altitude;pressure_sealevel;temperature;humidity
73936;BME280;62287;50.858;0.252;2023-04-24T00:00:16;100357.81;;;15.05;39.55
73936;BME280;62287;50.858;0.252;2023-04-24T00:00:47;100356.95;;;15.24;39.42
73936;BME280;62287;50.858;0.252;2023-04-24T00:01:18;100358.06;;;15.25;39.28
73936;BME280;62287;50.858;0.252;2023-04-24T00:01:49;100355.83;;;15.24;39.30
73936;BME280;62287;50.858;0.252;2023-04-24T00:02:20;100357.09;;;15.16;39.36
73936;BME280;62287;50.858;0.252;2023-04-24T00:02:51;100356.29;;;15.01;39.50
73936;BME280;62287;50.858;0.252;2023-04-24T00:03:22;100358.12;;;15.04;39.53
73936;BME280;62287;50.858;0.252;2023-04-24T00:03:54;100358.88;;;15.02;39.62
73936;BME280;62287;50.858;0.252;2023-04-24T00:04:24;100359.75;;;14.53;39.65
73936;BME280;62287;50.858;0.252;2023-04-24T00:04:55;100358.82;;;14.48;39.62
73936;BME280;62287;50.858;0.252;2023-04-24T00:05:26;100358.85;;;15.42;39.42
73936;BME280;62287;50.858;0.252;2023-04-24T00:05:57;100361.69;;;15.23;39.31
73936;BME280;62287;50.858;0.252;2023-04-24T00:06:28;100362.79;;;15.05;39.43
73936;BME280;62287;50.858;0.252;2023-04-24T00:06:59;100365.79;;;15.02;39.32
73936;BME280;62287;50.858;0.252;2023-04-24T00:07:30;100365.41;;;14.96;39.42
73936;BME280;62287;50.858;0.252;2023-04-24T00:08:01;100364.71;;;15.15;39.40
73936;BME280;62287;50.858;0.252;2023-04-24T00:08:32;100364.40;;;15.12;39.27
73936;BME280;62287;50.858;0.252;2023-04-24T00:09:03;100368.50;;;14.42;39.62
73936;BME280;62287;50.858;0.252;2023-04-24T00:09:34;100367.91;;;14.48;39.55
73936;BME280;62287;50.858;0.252;2023-04-24T00:10:06;100368.44;;;14.66;39.40
73936;BME280;62287;50.858;0.252;2023-04-24T00:10:37;100370.12;;;15.08;39.39
73936;BME280;62287;50.858;0.252;2023-04-24T00:11:08;100368.91;;;14.46;39.62
73936;BME280;62287;50.858;0.252;2023-04-24T00:11:39;100369.46;;;14.86;39.55
73936;BME280;62287;50.858;0.252;2023-04-24T00:12:10;100366.81;;;14.44;39.50
73936;BME280;62287;50.858;0.252;2023-04-24T00:12:41;100367.87;;;14.50;39.52
73936;BME280;62287;50.858;0.252;2023-04-24T00:13:12;100369.23;;;14.80;39.63
73936;BME280;62287;50.858;0.252;2023-04-24T00:13:43;100369.11;;;14.93;39.52
73936;BME280;62287;50.858;0.252;2023-04-24T00:14:14;100369.22;;;14.60;39.80
73936;BME280;62287;50.858;0.252;2023-04-24T00:14:45;100369.85;;;14.37;39.74
73936;BME280;62287;50.858;0.252;2023-04-24T00:15:16;100373.66;;;14.51;39.66
73936;BME280;62287;50.858;0.252;2023-04-24T00:15:47;100371.94;;;14.98;39.57
73936;BME280;62287;50.858;0.252;2023-04-24T00:16:18;100374.03;;;15.10;39.43
73936;BME280;62287;50.858;0.252;2023-04-24T00:16:49;100374.03;;;14.98;39.50
73936;BME280;62287;50.858;0.252;2023-04-24T00:17:20;100371.07;;;14.68;39.32
73936;BME280;62287;50.858;0.252;2023-04-24T00:17:51;100370.50;;;14.56;39.37
73936;BME280;62287;50.858;0.252;2023-04-24T00:18:22;100368.98;;;15.18;39.25
73936;BME280;62287;50.858;0.252;2023-04-24T00:18:53;100370.19;;;14.92;39.33
73936;BME280;62287;50.858;0.252;2023-04-24T00:19:24;100368.74;;;14.73;39.18
73936;BME280;62287;50.858;0.252;2023-04-24T00:19:55;100367.82;;;15.12;39.20
73936;BME280;62287;50.858;0.252;2023-04-24T00:20:26;100369.25;;;14.61;39.17
73936;BME280;62287;50.858;0.252;2023-04-24T00:20:57;100368.26;;;15.58;39.09
73936;BME280;62287;50.858;0.252;2023-04-24T00:21:28;100371.93;;;14.85;39.04
73936;BME280;62287;50.858;0.252;2023-04-24T00:21:58;100374.64;;;14.98;38.97
73936;BME280;62287;50.858;0.252;2023-04-24T00:22:30;100374.10;;;14.98;38.95
73936;BME280;62287;50.858;0.252;2023-04-24T00:23:01;100375.91;;;15.19;38.99
73936;BME280;62287;50.858;0.252;2023-04-24T00:23:32;100376.90;;;15.45;39.11
73936;BME280;62287;50.858;0.252;2023-04-24T00:24:04;100374.38;;;15.19;39.03
73936;BME280;62287;50.858;0.252;2023-04-24T00:24:35;100377.02;;;14.81;39.00
73936;BME280;62287;50.858;0.252;2023-04-24T00:25:06;100376.25;;;15.20;39.12
73936;BME280;62287;50.858;0.252;2023-04-24T00:25:38;100378.59;;;15.29;39.06
73936;BME280;62287;50.858;0.252;2023-04-24T00:26:09;100378.70;;;15.40;38.89
73936;BME280;62287;50.858;0.252;2023-04-24T00:26:45;100382.72;;;15.43;38.88
73936;BME280;62287;50.858;0.252;2023-04-24T00:27:16;100383.22;;;15.41;38.87
73936;BME280;62287;50.858;0.252;2023-04-24T00:27:47;100382.90;;;15.12;38.97
73936;BME280;62287;50.858;0.252;2023-04-24T00:28:18;100383.48;;;14.80;39.17
73936;BME280;62287;50.858;0.252;2023-04-24T00:28:49;100386.33;;;14.85;39.11
73936;BME280;62287;50.858;0.252;2023-04-24T00:29:20;100385.67;;;15.16;39.11
73936;BME280;62287;50.858;0.252;2023-04-24T00:29:51;100387.78;;;14.94;39.05
73936;BME280;62287;50.858;0.252;2023-04-24T00:30:22;100387.14;;;14.83;38.97
73936;BME280;62287;50.858;0.252;2023-04-24T00:30:53;100384.08;;;14.71;39.02
73936;BME280;62287;50.858;0.252;2023-04-24T00:31:24;100384.69;;;15.14;39.04
73936;BME280;62287;50.858;0.252;2023-04-24T00:31:57;100385.52;;;15.17;39.25
73936;BME280;62287;50.858;0.252;2023-04-24T00:32:28;100387.10;;;14.96;39.16
73936;BME280;62287;50.858;0.252;2023-04-24T00:33:05;100389.18;;;15.01;39.06
73936;BME280;62287;50.858;0.252;2023-04-24T00:33:36;100391.19;;;14.49;39.32
73936;BME280;62287;50.858;0.252;2023-04-24T00:34:07;100393.32;;;14.87;39.24
73936;BME280;62287;50.858;0.252;2023-04-24T00:34:38;100395.15;;;14.45;39.31
73936;BME280;62287;50.858;0.252;2023-04-24T00:35:09;100396.87;;;14.88;39.22
73936;BME280;62287;50.858;0.252;2023-04-24T00:35:40;100398.64;;;14.90;39.19
73936;BME280;62287;50.858;0.252;2023-04-24T00:36:11;100396.41;;;14.92;39.24
73936;BME280;62287;50.858;0.252;2023-04-24T00:36:41;100398.47;;;14.70;39.14
73936;BME280;62287;50.858;0.252;2023-04-24T00:37:12;100398.32;;;15.38;39.14
73936;BME280;62287;50.858;0.252;2023-04-24T00:37:43;100400.88;;;14.85;39.25
73936;BME280;62287;50.858;0.252;2023-04-24T00:38:14;100408.63;;;14.45;39.44
73936;BME280;62287;50.858;0.252;2023-04-24T00:38:45;100408.61;;;14.85;39.35
73936;BME280;62287;50.858;0.252;2023-04-24T00:39:16;100405.67;;;15.01;39.21
73936;BME280;62287;50.858;0.252;2023-04-24T00:39:47;100408.24;;;14.87;39.21
73936;BME280;62287;50.858;0.252;2023-04-24T00:40:18;100411.35;;;14.43;39.33
73936;BME280;62287;50.858;0.252;2023-04-24T00:40:49;100412.56;;;14.55;39.24
73936;BME280;62287;50.858;0.252;2023-04-24T00:41:20;100412.16;;;15.25;39.30
73936;BME280;62287;50.858;0.252;2023-04-24T00:41:52;100413.56;;;14.98;39.33
73936;BME280;62287;50.858;0.252;2023-04-24T00:42:24;100413.30;;;15.30;39.32
73936;BME280;62287;50.858;0.252;2023-04-24T00:42:55;100410.62;;;14.14;39.60
73936;BME280;62287;50.858;0.252;2023-04-24T00:43:26;100412.45;;;14.93;39.38
73936;BME280;62287;50.858;0.252;2023-04-24T00:43:57;100413.93;;;15.10;39.46
73936;BME280;62287;50.858;0.252;2023-04-24T00:44:28;100412.36;;;14.56;39.71
73936;BME280;62287;50.858;0.252;2023-04-24T00:44:59;100414.28;;;14.82;39.56
73936;BME280;62287;50.858;0.252;2023-04-24T00:45:31;100413.15;;;14.90;39.66
73936;BME280;62287;50.858;0.252;2023-04-24T00:46:02;100415.17;;;14.81;39.46
73936;BME280;62287;50.858;0.252;2023-04-24T00:46:33;100415.02;;;14.56;39.32
73936;BME280;62287;50.858;0.252;2023-04-24T00:47:04;100413.10;;;14.77;39.52
73936;BME280;62287;50.858;0.252;2023-04-24T00:47:36;100414.86;;;14.62;39.50
73936;BME280;62287;50.858;0.252;2023-04-24T00:48:07;100415.55;;;14.89;39.74
73936;BME280;62287;50.858;0.252;2023-04-24T00:48:39;100417.14;;;14.24;39.71
73936;BME280;62287;50.858;0.252;2023-04-24T00:49:12;100418.91;;;15.29;39.52
73936;BME280;62287;50.858;0.252;2023-04-24T00:49:44;100417.65;;;15.24;39.50
73936;BME280;62287;50.858;0.252;2023-04-24T00:50:15;100416.81;;;14.79;39.56
73936;BME280;62287;50.858;0.252;2023-04-24T00:50:46;100415.10;;;14.83;39.60
73936;BME280;62287;50.858;0.252;2023-04-24T00:51:17;100417.18;;;14.77;39.59
73936;BME280;62287;50.858;0.252;2023-04-24T00:51:48;100419.07;;;14.75;39.50
73936;BME280;62287;50.858;0.252;2023-04-24T00:52:19;100414.34;;;14.75;39.65
73936;BME280;62287;50.858;0.252;2023-04-24T00:52:50;100413.71;;;14.73;39.63
73936;BME280;62287;50.858;0.252;2023-04-24T00:53:21;100417.42;;;15.30;39.55
73936;BME280;62287;50.858;0.252;2023-04-24T00:53:52;100413.27;;;15.06;39.45
73936;BME280;62287;50.858;0.252;2023-04-24T00:54:23;100414.53;;;15.08;39.36
73936;BME280;62287;50.858;0.252;2023-04-24T00:54:54;100415.53;;;15.23;39.43
73936;BME280;62287;50.858;0.252;2023-04-24T00:55:25;100411.41;;;15.40;39.28
73936;BME280;62287;50.858;0.252;2023-04-24T00:55:56;100413.49;;;14.56;39.34
73936;BME280;62287;50.858;0.252;2023-04-24T00:56:28;100415.10;;;14.96;39.57
73936;BME280;62287;50.858;0.252;2023-04-24T00:56:59;100417.89;;;14.72;39.58
73936;BME280;62287;50.858;0.252;2023-04-24T00:57:30;100420.12;;;14.68;39.63
73936;BME280;62287;50.858;0.252;2023-04-24T00:58:01;100422.65;;;15.24;39.46
73936;BME280;62287;50.858;0.252;2023-04-24T00:58:32;100422.47;;;15.27;39.43
73936;BME280;62287;50.858;0.252;2023-04-24T00:59:03;100422.16;;;15.20;39.38
73936;BME280;62287;50.858;0.252;2023-04-24T00:59:34;100419.58;;;15.00;39.31
73936;BME280;62287;50.858;0.252;2023-04-24T01:00:06;100422.18;;;14.95;39.34
73936;BME280;62287;50.858;0.252;2023-04-24T01:00:38;100420.11;;;14.90;39.33
73936;BME280;62287;50.858;0.252;2023-04-24T01:01:09;100421.76;;;14.45;39.49
73936;BME280;62287;50.858;0.252;2023-04-24T01:01:41;100420.42;;;14.84;39.81
73936;BME280;62287;50.858;0.252;2023-04-24T01:02:12;100422.37;;;14.66;39.74
73936;BME280;62287;50.858;0.252;2023-04-24T01:02:44;100423.87;;;15.32;39.57
73936;BME280;62287;50.858;0.252;2023-04-24T01:03:16;100422.19;;;15.12;39.64
73936;BME280;62287;50.858;0.252;2023-04-24T01:03:53;100425.75;;;14.89;39.51
73936;BME280;62287;50.858;0.252;2023-04-24T01:04:25;100427.49;;;15.27;39.46
73936;BME280;62287;50.858;0.252;2023-04-24T01:04:56;100429.76;;;15.24;39.46
73936;BME280;62287;50.858;0.252;2023-04-24T01:05:28;100428.07;;;14.70;39.58
73936;BME280;62287;50.858;0.252;2023-04-24T01:05:59;100429.48;;;14.50;39.55
73936;BME280;62287;50.858;0.252;2023-04-24T01:06:30;100430.61;;;14.77;39.55
73936;BME280;62287;50.858;0.252;2023-04-24T01:07:01;100430.30;;;15.27;39.48
73936;BME280;62287;50.858;0.252;2023-04-24T01:07:33;100433.78;;;15.02;39.47
73936;BME280;62287;50.858;0.252;2023-04-24T01:08:04;100433.85;;;15.06;39.43
73936;BME280;62287;50.858;0.252;2023-04-24T01:08:36;100435.34;;;15.24;39.56
73936;BME280;62287;50.858;0.252;2023-04-24T01:09:07;100433.99;;;14.44;39.70
73936;BME280;62287;50.858;0.252;2023-04-24T01:09:40;100432.09;;;14.76;39.60
73936;BME280;62287;50.858;0.252;2023-04-24T01:10:12;100430.63;;;15.33;39.56
73936;BME280;62287;50.858;0.252;2023-04-24T01:10:44;100430.89;;;15.11;39.63
73936;BME280;62287;50.858;0.252;2023-04-24T01:11:15;100428.24;;;14.61;39.77
73936;BME280;62287;50.858;0.252;2023-04-24T01:11:46;100428.07;;;14.87;39.63
73936;BME280;62287;50.858;0.252;2023-04-24T01:12:17;100429.52;;;14.97;39.50
73936;BME280;62287;50.858;0.252;2023-04-24T01:12:48;100425.65;;;15.21;39.34
73936;BME280;62287;50.858;0.252;2023-04-24T01:13:21;100429.14;;;15.06;39.48
73936;BME280;62287;50.858;0.252;2023-04-24T01:13:52;100429.94;;;14.93;39.59
73936;BME280;62287;50.858;0.252;2023-04-24T01:14:23;100427.98;;;14.70;39.68
73936;BME280;62287;50.858;0.252;2023-04-24T01:14:54;100430.52;;;14.89;39.54
73936;BME280;62287;50.858;0.252;2023-04-24T01:15:26;100428.57;;;15.38;39.46
73936;BME280;62287;50.858;0.252;2023-04-24T01:15:57;100428.24;;;15.34;39.41
73936;BME280;62287;50.858;0.252;2023-04-24T01:16:29;100428.14;;;14.93;39.50
73936;BME280;62287;50.858;0.252;2023-04-24T01:17:00;100427.38;;;14.87;39.52
73936;BME280;62287;50.858;0.252;2023-04-24T01:17:31;100430.72;;;15.00;39.46
73936;BME280;62287;50.858;0.252;2023-04-24T01:18:02;100430.90;;;14.98;39.43
73936;BME280;62287;50.858;0.252;2023-04-24T01:18:32;100430.53;;;14.96;39.38
73936;BME280;62287;50.858;0.252;2023-04-24T01:19:04;100431.79;;;14.83;39.49
73936;BME280;62287;50.858;0.252;2023-04-24T01:19:35;100431.80;;;14.93;39.52
73936;BME280;62287;50.858;0.252;2023-04-24T01:20:07;100433.24;;;14.55;39.49
73936;BME280;62287;50.858;0.252;2023-04-24T01:20:40;100434.92;;;14.64;39.73
73936;BME280;62287;50.858;0.252;2023-04-24T01:21:13;100435.71;;;14.64;39.74
73936;BME280;62287;50.858;0.252;2023-04-24T01:21:47;100437.48;;;14.98;39.81
73936;BME280;62287;50.858;0.252;2023-04-24T01:22:21;100437.38;;;14.47;39.87
73936;BME280;62287;50.858;0.252;2023-04-24T01:22:52;100438.49;;;15.08;39.76
73936;BME280;62287;50.858;0.252;2023-04-24T01:23:25;100440.41;;;15.26;39.62
73936;BME280;62287;50.858;0.252;2023-04-24T01:23:56;100441.38;;;14.43;39.62
73936;BME280;62287;50.858;0.252;2023-04-24T01:24:27;100443.17;;;14.65;39.75
73936;BME280;62287;50.858;0.252;2023-04-24T01:24:59;100440.67;;;14.66;39.77
73936;BME280;62287;50.858;0.252;2023-04-24T01:25:30;100442.64;;;14.79;39.69
73936;BME280;62287;50.858;0.252;2023-04-24T01:26:01;100442.00;;;14.49;39.93
73936;BME280;62287;50.858;0.252;2023-04-24T01:26:33;100440.23;;;14.40;40.07
73936;BME280;62287;50.858;0.252;2023-04-24T01:27:04;100441.91;;;14.54;39.90
73936;BME280;62287;50.858;0.252;2023-04-24T01:27:35;100444.22;;;14.43;39.73
73936;BME280;62287;50.858;0.252;2023-04-24T01:28:06;100443.04;;;14.67;39.72
73936;BME280;62287;50.858;0.252;2023-04-24T01:28:37;100445.49;;;14.82;39.57
73936;BME280;62287;50.858;0.252;2023-04-24T01:29:08;100441.85;;;14.70;39.67
73936;BME280;62287;50.858;0.252;2023-04-24T01:29:40;100442.97;;;14.35;39.73
73936;BME280;62287;50.858;0.252;2023-04-24T01:30:12;100444.07;;;14.73;39.63
73936;BME280;62287;50.858;0.252;2023-04-24T01:30:44;100447.43;;;14.91;39.49
73936;BME280;62287;50.858;0.252;2023-04-24T01:31:15;100445.04;;;14.87;39.45
73936;BME280;62287;50.858;0.252;2023-04-24T01:31:46;100443.52;;;15.31;39.35
73936;BME280;62287;50.858;0.252;2023-04-24T01:32:17;100444.22;;;15.30;39.28
73936;BME280;62287;50.858;0.252;2023-04-24T01:32:48;100442.75;;;14.63;39.43
73936;BME280;62287;50.858;0.252;2023-04-24T01:33:20;100447.19;;;14.90;39.26
73936;BME280;62287;50.858;0.252;2023-04-24T01:33:52;100448.35;;;14.97;39.21
73936;BME280;62287;50.858;0.252;2023-04-24T01:34:24;100448.65;;;14.98;39.13
73936;BME280;62287;50.858;0.252;2023-04-24T01:34:55;100451.34;;;14.70;39.04
73936;BME280;62287;50.858;0.252;2023-04-24T01:35:26;100447.99;;;15.05;38.95
73936;BME280;62287;50.858;0.252;2023-04-24T01:35:57;100450.46;;;14.96;38.91
73936;BME280;62287;50.858;0.252;2023-04-24T01:36:29;100450.41;;;14.98;39.01
73936;BME280;62287;50.858;0.252;2023-04-24T01:37:01;100451.56;;;15.02;38.95
73936;BME280;62287;50.858;0.252;2023-04-24T01:37:32;100453.96;;;14.99;38.91
73936;BME280;62287;50.858;0.252;2023-04-24T01:38:03;100452.67;;;15.39;39.01
73936;BME280;62287;50.858;0.252;2023-04-24T01:38:35;100452.88;;;14.79;39.12
73936;BME280;62287;50.858;0.252;2023-04-24T01:39:05;100453.25;;;14.69;39.18
73936;BME280;62287;50.858;0.252;2023-04-24T01:39:37;100453.17;;;14.80;39.29
73936;BME280;62287;50.858;0.252;2023-04-24T01:40:08;100451.47;;;14.92;39.14
73936;BME280;62287;50.858;0.252;2023-04-24T01:40:40;100452.61;;;14.17;39.30
73936;BME280;62287;50.858;0.252;2023-04-24T01:41:11;100453.10;;;14.43;39.52
73936;BME280;62287;50.858;0.252;2023-04-24T01:41:42;100452.09;;;13.86;39.72
73936;BME280;62287;50.858;0.252;2023-04-24T01:42:13;100451.43;;;14.48;39.82
73936;BME280;62287;50.858;0.252;2023-04-24T01:42:45;100453.67;;;14.10;39.83
73936;BME280;62287;50.858;0.252;2023-04-24T01:43:16;100454.77;;;13.83;39.77
73936;BME280;62287;50.858;0.252;2023-04-24T01:43:48;100452.34;;;14.40;39.52
73936;BME280;62287;50.858;0.252;2023-04-24T01:44:19;100454.83;;;14.60;39.72
73936;BME280;62287;50.858;0.252;2023-04-24T01:44:50;100456.82;;;13.83;40.03
73936;BME280;62287;50.858;0.252;2023-04-24T01:45:22;100457.61;;;14.64;39.66
73936;BME280;62287;50.858;0.252;2023-04-24T01:45:53;100457.84;;;14.95;39.44
73936;BME280;62287;50.858;0.252;2023-04-24T01:46:24;100456.27;;;15.04;39.25
73936;BME280;62287;50.858;0.252;2023-04-24T01:46:55;100458.59;;;14.95;39.22
73936;BME280;62287;50.858;0.252;2023-04-24T01:47:26;100457.71;;;14.61;39.19
73936;BME280;62287;50.858;0.252;2023-04-24T01:47:58;100456.94;;;14.63;39.24
73936;BME280;62287;50.858;0.252;2023-04-24T01:48:29;100459.69;;;14.53;39.26
73936;BME280;62287;50.858;0.252;2023-04-24T01:49:00;100458.50;;;14.42;39.33
73936;BME280;62287;50.858;0.252;2023-04-24T01:49:32;100460.25;;;14.44;39.29
73936;BME280;62287;50.858;0.252;2023-04-24T01:50:04;100462.86;;;14.61;39.20
73936;BME280;62287;50.858;0.252;2023-04-24T01:50:35;100463.28;;;14.46;39.18
73936;BME280;62287;50.858;0.252;2023-04-24T01:51:06;100465.14;;;14.46;39.34
73936;BME280;62287;50.858;0.252;2023-04-24T01:51:37;100464.33;;;14.41;39.29
73936;BME280;62287;50.858;0.252;2023-04-24T01:52:08;100464.98;;;14.14;39.33
73936;BME280;62287;50.858;0.252;2023-04-24T01:52:39;100464.17;;;14.87;39.27
73936;BME280;62287;50.858;0.252;2023-04-24T01:53:10;100463.42;;;14.82;39.13
73936;BME280;62287;50.858;0.252;2023-04-24T01:53:41;100465.04;;;14.39;39.02
73936;BME280;62287;50.858;0.252;2023-04-24T01:54:12;100465.36;;;14.76;38.98
73936;BME280;62287;50.858;0.252;2023-04-24T01:54:43;100461.89;;;15.00;39.08
73936;BME280;62287;50.858;0.252;2023-04-24T01:55:14;100459.89;;;14.42;39.15
73936;BME280;62287;50.858;0.252;2023-04-24T01:55:45;100462.89;;;14.64;39.31
73936;BME280;62287;50.858;0.252;2023-04-24T01:56:17;100460.14;;;14.77;39.19
73936;BME280;62287;50.858;0.252;2023-04-24T01:56:49;100458.66;;;14.81;39.08
73936;BME280;62287;50.858;0.252;2023-04-24T01:57:19;100460.52;;;14.59;39.37
73936;BME280;62287;50.858;0.252;2023-04-24T01:57:52;100458.15;;;14.35;39.27
73936;BME280;62287;50.858;0.252;2023-04-24T01:58:24;100458.36;;;14.39;39.13
73936;BME280;62287;50.858;0.252;2023-04-24T01:58:56;100456.70;;;14.73;39.17
73936;BME280;62287;50.858;0.252;2023-04-24T01:59:28;100460.74;;;14.31;39.20
73936;BME280;62287;50.858;0.252;2023-04-24T02:00:00;100458.03;;;14.79;39.20
73936;BME280;62287;50.858;0.252;2023-04-24T02:00:31;100460.23;;;14.39;39.14
73936;BME280;62287;50.858;0.252;2023-04-24T02:01:02;100457.96;;;14.73;39.12
73936;BME280;62287;50.858;0.252;2023-04-24T02:01:34;100460.56;;;14.63;39.17
73936;BME280;62287;50.858;0.252;2023-04-24T02:02:06;100463.32;;;14.69;39.18
73936;BME280;62287;50.858;0.252;2023-04-24T02:02:37;100466.64;;;14.23;39.22
73936;BME280;62287;50.858;0.252;2023-04-24T02:03:08;100464.35;;;14.75;39.14
73936;BME280;62287;50.858;0.252;2023-04-24T02:03:39;100466.00;;;14.31;39.14
73936;BME280;62287;50.858;0.252;2023-04-24T02:04:10;100463.32;;;14.06;39.07
73936;BME280;62287;50.858;0.252;2023-04-24T02:04:41;100462.44;;;14.48;39.04
73936;BME280;62287;50.858;0.252;2023-04-24T02:05:12;100464.10;;;14.36;39.01
73936;BME280;62287;50.858;0.252;2023-04-24T02:05:44;100466.53;;;14.30;39.08
73936;BME280;62287;50.858;0.252;2023-04-24T02:06:14;100468.42;;;14.33;39.20
73936;BME280;62287;50.858;0.252;2023-04-24T02:06:45;100468.09;;;14.14;39.27
73936;BME280;62287;50.858;0.252;2023-04-24T02:07:16;100466.85;;;14.39;39.12
73936;BME280;62287;50.858;0.252;2023-04-24T02:07:47;100466.05;;;14.31;39.08
73936;BME280;62287;50.858;0.252;2023-04-24T02:08:18;100466.20;;;14.62;39.17
73936;BME280;62287;50.858;0.252;2023-04-24T02:08:49;100468.58;;;14.20;39.18
73936;BME280;62287;50.858;0.252;2023-04-24T02:09:20;100467.06;;;14.56;39.18
73936;BME280;62287;50.858;0.252;2023-04-24T02:09:51;100466.46;;;14.07;39.07
73936;BME280;62287;50.858;0.252;2023-04-24T02:10:22;100463.31;;;14.36;39.05
73936;BME280;62287;50.858;0.252;2023-04-24T02:10:53;100464.04;;;14.75;38.77
73936;BME280;62287;50.858;0.252;2023-04-24T02:11:24;100460.87;;;14.39;38.93
73936;BME280;62287;50.858;0.252;2023-04-24T02:11:55;100463.79;;;14.73;39.08
73936;BME280;62287;50.858;0.252;2023-04-24T02:12:26;100461.18;;;14.85;38.98
73936;BME280;62287;50.858;0.252;2023-04-24T02:12:57;100460.90;;;14.52;38.93
73936;BME280;62287;50.858;0.252;2023-04-24T02:13:28;100462.41;;;14.84;38.96
73936;BME280;62287;50.858;0.252;2023-04-24T02:13:59;100462.50;;;14.53;38.93
73936;BME280;62287;50.858;0.252;2023-04-24T02:14:30;100466.60;;;14.50;39.17
73936;BME280;62287;50.858;0.252;2023-04-24T02:15:01;100466.44;;;14.39;39.31
73936;BME280;62287;50.858;0.252;2023-04-24T02:15:32;100466.12;;;14.31;39.33
73936;BME280;62287;50.858;0.252;2023-04-24T02:16:03;100465.99;;;14.04;39.41
73936;BME280;62287;50.858;0.252;2023-04-24T02:16:34;100469.05;;;14.43;39.30
73936;BME280;62287;50.858;0.252;2023-04-24T02:17:06;100469.73;;;14.21;39.25
73936;BME280;62287;50.858;0.252;2023-04-24T02:17:36;100468.76;;;14.55;39.26
73936;BME280;62287;50.858;0.252;2023-04-24T02:18:13;100470.14;;;14.54;39.21
73936;BME280;62287;50.858;0.252;2023-04-24T02:18:44;100469.84;;;14.05;39.23
73936;BME280;62287;50.858;0.252;2023-04-24T02:19:14;100470.30;;;14.06;39.28
73936;BME280;62287;50.858;0.252;2023-04-24T02:19:45;100469.49;;;14.25;39.17
73936;BME280;62287;50.858;0.252;2023-04-24T02:20:16;100469.48;;;14.62;39.16
73936;BME280;62287;50.858;0.252;2023-04-24T02:20:47;100470.70;;;14.49;39.30
73936;BME280;62287;50.858;0.252;2023-04-24T02:21:18;100470.57;;;14.48;39.28
73936;BME280;62287;50.858;0.252;2023-04-24T02:21:49;100471.32;;;14.52;39.23
73936;BME280;62287;50.858;0.252;2023-04-24T02:22:21;100470.71;;;14.15;39.15
73936;BME280;62287;50.858;0.252;2023-04-24T02:22:52;100468.95;;;14.30;39.11
73936;BME280;62287;50.858;0.252;2023-04-24T02:23:22;100469.26;;;14.48;39.28
73936;BME280;62287;50.858;0.252;2023-04-24T02:23:54;100469.50;;;14.36;39.08
73936;BME280;62287;50.858;0.252;2023-04-24T02:24:25;100467.92;;;14.16;39.11
73936;BME280;62287;50.858;0.252;2023-04-24T02:24:56;100466.89;;;14.71;39.07
73936;BME280;62287;50.858;0.252;2023-04-24T02:25:26;100467.47;;;14.63;39.14
73936;BME280;62287;50.858;0.252;2023-04-24T02:25:57;100469.01;;;14.33;39.03
73936;BME280;62287;50.858;0.252;2023-04-24T02:26:28;100469.69;;;14.69;39.03
73936;BME280;62287;50.858;0.252;2023-04-24T02:27:39;100472.21;;;14.70;38.99
73936;BME280;62287;50.858;0.252;2023-04-24T02:28:10;100470.38;;;14.25;39.32
73936;BME280;62287;50.858;0.252;2023-04-24T02:28:41;100471.53;;;14.62;39.03
73936;BME280;62287;50.858;0.252;2023-04-24T02:29:12;100469.75;;;14.24;39.10
73936;BME280;62287;50.858;0.252;2023-04-24T02:29:49;100469.71;;;14.52;39.06
73936;BME280;62287;50.858;0.252;2023-04-24T02:30:20;100471.78;;;13.72;39.04
73936;BME280;62287;50.858;0.252;2023-04-24T02:30:52;100470.53;;;14.45;39.15
73936;BME280;62287;50.858;0.252;2023-04-24T02:31:22;100472.63;;;14.36;38.97
73936;BME280;62287;50.858;0.252;2023-04-24T02:31:53;100471.82;;;14.76;38.96
73936;BME280;62287;50.858;0.252;2023-04-24T02:32:24;100470.83;;;14.52;38.87
73936;BME280;62287;50.858;0.252;2023-04-24T02:32:55;100471.65;;;13.94;38.93
73936;BME280;62287;50.858;0.252;2023-04-24T02:33:26;100470.79;;;14.77;38.89
73936;BME280;62287;50.858;0.252;2023-04-24T02:33:57;100474.35;;;14.50;39.04
73936;BME280;62287;50.858;0.252;2023-04-24T02:34:28;100476.55;;;14.78;38.92
73936;BME280;62287;50.858;0.252;2023-04-24T02:34:59;100476.58;;;14.14;39.14
73936;BME280;62287;50.858;0.252;2023-04-24T02:35:30;100477.73;;;14.43;39.28
73936;BME280;62287;50.858;0.252;2023-04-24T02:36:01;100480.36;;;14.16;39.17
73936;BME280;62287;50.858;0.252;2023-04-24T02:36:32;100481.20;;;14.41;39.28
73936;BME280;62287;50.858;0.252;2023-04-24T02:37:03;100483.76;;;14.37;39.29
73936;BME280;62287;50.858;0.252;2023-04-24T02:37:34;100485.18;;;14.30;39.34
73936;BME280;62287;50.858;0.252;2023-04-24T02:38:05;100487.75;;;13.92;39.41
73936;BME280;62287;50.858;0.252;2023-04-24T02:38:46;100490.05;;;14.43;39.27
73936;BME280;62287;50.858;0.252;2023-04-24T02:39:17;100489.27;;;14.75;39.29
73936;BME280;62287;50.858;0.252;2023-04-24T02:39:48;100491.15;;;14.37;39.30
73936;BME280;62287;50.858;0.252;2023-04-24T02:40:19;100491.99;;;13.84;39.38
73936;BME280;62287;50.858;0.252;2023-04-24T02:40:50;100492.54;;;13.96;39.25
73936;BME280;62287;50.858;0.252;2023-04-24T02:41:21;100493.21;;;14.23;39.40
73936;BME280;62287;50.858;0.252;2023-04-24T02:41:52;100494.26;;;14.44;39.27
73936;BME280;62287;50.858;0.252;2023-04-24T02:42:23;100495.65;;;14.10;39.56
73936;BME280;62287;50.858;0.252;2023-04-24T02:42:54;100498.01;;;13.51;39.81
73936;BME280;62287;50.858;0.252;2023-04-24T02:43:25;100496.97;;;13.92;39.66
73936;BME280;62287;50.858;0.252;2023-04-24T02:43:56;100497.13;;;13.80;39.82
73936;BME280;62287;50.858;0.252;2023-04-24T02:44:27;100499.37;;;13.72;39.61